• Join FlightAware (Why Join?)
  • Login
  • US Flag 
03:15PM EST


 

Airport Tracker/Info


-or-


 

Live Flight TrackerFlight Track Log ✈ ACA860 ✈ 05-Apr-2013 ✈ CYHZ - EGLL / LHR

Flight Track Log - Related Links

Times and Time Zones

All times are in EDT time to prevent confusion due to time zone crossing. See the ACA860 flight status page for this flight to view local times or setup timezone preferences in your user account.

Time Position Orientation Groundspeed Altitude Reporting Facility
EDT Latitude Longitude Course Direction KTS MPH feet Rate Location/Type
10:56PM 44.8167 -63.5500 59° Northeast 170 196 3,600  Level Moncton Center
10:57PM 44.7667 -63.5500 180° South 210 242 5,800 2,880 Climbing Moncton Center
10:58PM 45.0667 -62.9984 90° East  Level FlightAware Approximate
10:58PM 44.7333 -63.4500 115° Southeast 270 311 9,400  Level Moncton Center
10:59PM 45.1345 -62.8341 57° Northeast  Level FlightAware Approximate
10:59PM 44.7667 -63.3667 61° Northeast 330 380 11,400  Level Moncton Center
11:00PM 45.1920 -62.6626 59° Northeast  Level FlightAware Approximate
11:00PM 44.8333 -63.2333 55° Northeast 390 449 14,400  Level Moncton Center
11:01PM 45.2612 -62.4965 59° Northeast  Level FlightAware Approximate
11:01PM 44.9167 -63.1000 49° Northeast 420 483 17,200  Level Moncton Center
11:02PM 44.9833 -62.9833 51° Northeast 430 495 20,200 2,340 Climbing Moncton Center
11:03PM 45.0667 -62.8167 55° Northeast 470 541 21,900 2,040 Climbing Moncton Center
11:04PM 45.1500 -62.6667 52° Northeast 490 564 24,300 1,980 Climbing Moncton Center
11:05PM 45.2167 -62.5000 60° Northeast 510 587 25,900 1,500 Climbing Moncton Center
11:06PM 45.3167 -62.3000 55° Northeast 550 633 27,400 1,500 Climbing Moncton Center
11:07PM 45.4167 -62.1333 49° Northeast 570 656 28,900 1,860 Climbing Moncton Center
11:08PM 45.5167 -61.9333 54° Northeast 590 679 31,200 2,100 Climbing Moncton Center
11:09PM 45.6167 -61.7667 49° Northeast 580 667 33,100 1,500 Climbing Moncton Center
11:10PM 45.7000 -61.5667 59° Northeast 590 679 34,200 900 Climbing Moncton Center
11:11PM 45.8000 -61.3667 54° Northeast 600 690 34,900 360 Climbing Moncton Center
11:12PM 45.9167 -61.1667 50° Northeast 620 713 35,000  Climbing Moncton Center
11:13PM 46.0000 -60.9833 57° Northeast 610 702 35,000  Level Moncton Center
11:14PM 46.1000 -60.7833 54° Northeast 600 690 35,000  Level Moncton Center
11:15PM 46.2000 -60.5833 54° Northeast 600 690 35,000  Level Moncton Center
11:16PM 46.2833 -60.3833 59° Northeast 600 690 35,000  Level Moncton Center
11:17PM 46.4000 -60.1667 52° Northeast 600 690 35,000  Level Moncton Center
11:18PM 46.5000 -59.9667 54° Northeast 600 690 35,000  Level Moncton Center
11:19PM 46.5833 -59.8000 54° Northeast 600 690 35,000  Level Moncton Center
11:19PM 46.6833 -59.6000 54° Northeast 600 690 35,000  Level Gander Center
11:20PM 46.7667 -59.4000 59° Northeast 600 690 35,000  Level Gander Center
11:22PM 46.8833 -59.1833 52° Northeast 600 690 35,000  Level Moncton Center
11:22PM 46.9500 -59.0000 62° Northeast 590 679 35,000  Level Gander Center
11:23PM 47.0500 -58.8000 54° Northeast 590 679 35,000  Level Gander Center
11:25PM 47.1500 -58.5833 56° Northeast 580 667 35,000  Level Moncton Center
11:26PM 47.2333 -58.3833 56° Northeast 590 679 35,000  Level Moncton Center
11:26PM 47.3167 -58.2000 62° Northeast 590 679 35,000  Level Gander Center
11:27PM 47.4167 -58.0000 62° Northeast 590 679 35,000  Level Gander Center
11:28PM 47.4167 -57.9833 62° Northeast 590 679 35,000  Level Moncton Center
11:29PM 47.5000 -57.7833 62° Northeast 580 667 35,000  Level Moncton Center
11:30PM 47.6640 -57.4570 56° Northeast 590 679 35,000  Level FlightAware
11:31PM 47.7210 -57.2960 62° Northeast 591 680 35,000  Level FlightAware
11:32PM 47.7770 -57.1370 62° Northeast 590 679 35,000  Level FlightAware
11:33PM 47.8410 -56.9570 62° Northeast 589 678 35,000  Level FlightAware
11:33PM 47.8920 -56.8160 62° Northeast 588 677 35,000  Level FlightAware
11:34PM 47.9480 -56.6580 62° Northeast 585 673 35,000  Level FlightAware
11:35PM 48.0140 -56.4710 62° Northeast 582 670 35,000  Level FlightAware
11:36PM 48.0640 -56.3290 62° Northeast 35,000  Level FlightAware
11:36PM 48.1180 -56.1750 62° Northeast 576 663 35,000  Level FlightAware
11:37PM 48.1850 -55.9800 63° Northeast 574 661 35,000  Level FlightAware
11:38PM 48.2360 -55.8280 63° Northeast 572 658 35,000  Level FlightAware
11:39PM 48.2920 -55.6640 63° Northeast 574 661 35,000  Level FlightAware
11:39PM 48.3400 -55.5230 63° Northeast 573 659 35,000  Level FlightAware
11:40PM 48.4000 -55.3430 63° Northeast 573 659 35,000  Level FlightAware
11:41PM 48.4580 -55.1710 63° Northeast 572 658 35,000  Level FlightAware
11:42PM 48.4970 -55.0520 64° Northeast 571 657 35,000  Level FlightAware
11:43PM 48.5650 -54.8470 63° Northeast 568 654 35,000  Level FlightAware
11:44PM 48.6450 -54.6010 64° Northeast 568 654 35,000  Level FlightAware
11:44PM 48.6333 -54.5500 65° Northeast 570 656 35,000  Level Gander Center
11:45PM 48.7270 -54.3480 64° Northeast 566 651 35,000 -120 Level FlightAware
11:46PM 48.8240 -54.0410 64° Northeast 560 644 34,700 -300 Descending FlightAware
11:46PM 48.8333 -53.9667 65° Northeast 560 644 34,600 -540 Descending Gander Center
11:47PM 48.9000 -53.8010 64° Northeast 539 620 34,100 -300 Descending FlightAware
11:49PM 48.9740 -53.5620 65° Northeast 530 610 34,000 -120 Descending FlightAware
11:49PM 48.9667 -53.4833 65° Northeast 530 610 34,000  Level Gander Center
11:50PM 50.0000 -50.0000 77° East 538 619 34,000  Level ETMS Enhanced Traffic Management System
11:50PM 49.0480 -53.3230 65° Northeast 537 618 34,000  Level FlightAware
11:50PM 49.0833 -53.1333 77° East 540 621 34,000  Level Gander Center
11:51PM 49.1210 -53.0840 65° Northeast 542 624 34,000  Level FlightAware
11:52PM 49.1730 -52.9120 65° Northeast 544 626 34,000  Level FlightAware
11:52PM 49.2140 -52.7750 65° Northeast 543 625 34,000  Level FlightAware
11:53PM 49.2530 -52.6460 65° Northeast 543 625 34,000  Level FlightAware
11:54PM 49.2990 -52.4900 66° East 540 621 34,000  Level FlightAware
11:55PM 49.3520 -52.3100 66° East 535 616 34,000  Level FlightAware
11:55PM 49.3500 -52.2333 66° East 540 621 34,000  Level Gander Center
11:56PM 49.4240 -52.0660 77° East 530 610 34,000  Level FlightAware
11:57PM 49.4930 -51.8260 66° East 528 608 34,000  Level FlightAware
11:58PM 49.5280 -51.7050 66° East 531 611 34,000  Level FlightAware
11:58PM 49.5760 -51.5380 66° East 531 611 34,000  Level FlightAware
11:59PM 49.6100 -51.4210 66° East 531 611 34,000  Level FlightAware
12:00AM 49.6440 -51.3030 66° East 531 611 34,000  Level FlightAware
12:01AM 49.6860 -51.1550 66° East 531 611 34,000  Level FlightAware
12:01AM 49.7200 -51.0370 66° East 531 611 34,000  Level FlightAware
12:02AM 49.7540 -50.9190 66° East 531 611 34,000  Level FlightAware
12:03AM 49.7880 -50.8010 66° East 531 611 34,000  Level FlightAware
12:03AM 49.8220 -50.6830 66° East 531 611 34,000  Level FlightAware
12:04AM 49.8650 -50.5350 66° East 531 611 34,000  Level FlightAware
12:05AM 49.8990 -50.4170 66° East 531 611 34,000  Level FlightAware
12:05AM 49.9330 -50.2980 66° East 531 611 34,000  Level FlightAware
12:06AM 49.9750 -50.1500 66° East 531 611 34,000  Level FlightAware
12:07AM 50.0090 -50.0310 66° East 531 611 34,000  Level FlightAware
12:07AM 50.0000 -50.0000 77° East 526 605 34,000  Level ETMS Enhanced Traffic Management System
12:07AM 50.0333 -49.5667 77° East 530 610 34,000  Level Gander Center
12:08AM 50.0430 -49.9120 66° East 531 611 34,000  Level FlightAware
12:08AM 50.0500 -49.4833 73° East 530 610 34,000  Level Gander Center
12:09AM 50.0833 -49.2667 76° East 540 621 34,000  Level Gander Center
12:10AM 50.1000 -49.0500 83° East 530 610 34,000  Level Gander Center
12:11AM 50.1500 -48.8000 73° East 530 610 34,000  Level Gander Center
12:12AM 50.1667 -48.5833 83° East 530 610 34,000  Level Gander Center
12:13AM 50.2000 -48.3667 76° East 530 610 34,000  Level Gander Center
12:13AM 50.2167 -48.2000 81° East 520 598 34,000  Level Gander Center
12:14AM 50.2500 -47.9833 76° East 520 598 34,000  Level Gander Center
12:15AM 50.2667 -47.9167 69° East 520 598 34,000  Level Gander Center
12:17AM 50.3155 -47.5359 79° East  Level FlightAware Approximate
12:24AM 50.4929 -46.0480 80° East  Level FlightAware Approximate
12:25AM 50.5162 -45.8344 80° East  Level FlightAware Approximate
12:26AM 50.5391 -45.6205 80° East  Level FlightAware Approximate
12:27AM 50.5617 -45.4065 81° East  Level FlightAware Approximate
12:28AM 50.5838 -45.1923 81° East  Level FlightAware Approximate
12:29AM 50.6056 -44.9779 81° East  Level FlightAware Approximate
12:30AM 50.6272 -44.7633 81° East  Level FlightAware Approximate
12:31AM 50.6483 -44.5485 81° East  Level FlightAware Approximate
12:32AM 50.6690 -44.3335 81° East  Level FlightAware Approximate
12:33AM 50.6894 -44.1184 81° East  Level FlightAware Approximate
12:34AM 50.7093 -43.9030 82° East  Level FlightAware Approximate
12:35AM 50.7289 -43.6875 82° East  Level FlightAware Approximate
12:36AM 50.7481 -43.4718 82° East  Level FlightAware Approximate
12:37AM 50.7668 -43.2560 82° East  Level FlightAware Approximate
12:38AM 50.7852 -43.0399 82° East  Level FlightAware Approximate
12:39AM 50.8031 -42.8237 82° East  Level FlightAware Approximate
12:40AM 50.8207 -42.6073 83° East  Level FlightAware Approximate
12:41AM 50.8378 -42.3908 83° East  Level FlightAware Approximate
12:42AM 50.8546 -42.1741 83° East  Level FlightAware Approximate
12:43AM 50.8710 -41.9572 83° East  Level FlightAware Approximate
12:44AM 50.8869 -41.7402 83° East  Level FlightAware Approximate
12:45AM 50.9025 -41.5231 83° East  Level FlightAware Approximate
12:46AM 50.9176 -41.3058 84° East  Level FlightAware Approximate
12:47AM 50.9324 -41.0884 84° East  Level FlightAware Approximate
12:48AM 50.9467 -40.8708 84° East  Level FlightAware Approximate
12:49AM 50.9607 -40.6531 84° East  Level FlightAware Approximate
12:50AM 50.9742 -40.4353 84° East  Level FlightAware Approximate
12:51AM 50.9873 -40.2173 84° East  Level FlightAware Approximate
12:52AM 51.0001 -39.9993 77° East  Level FlightAware Approximate
12:52AM 51.0000 -40.0000 77° East 503 579 34,000  Level ETMS Enhanced Traffic Management System
12:53AM 51.0310 -39.7857 77° East  Level FlightAware Approximate
12:54AM 51.0614 -39.5719 77° East  Level FlightAware Approximate
12:55AM 51.0915 -39.3578 77° East  Level FlightAware Approximate
12:56AM 51.1212 -39.1434 77° East  Level FlightAware Approximate
12:57AM 51.1505 -38.9287 78° East  Level FlightAware Approximate
12:58AM 51.2394 -38.2570 78° East 503 579 34,000  Level FlightAware Transoceanic
12:59AM 51.2675 -38.0378 79° East 503 579 34,000  Level FlightAware Transoceanic
01:00AM 51.2952 -37.8185 79° East 503 579 34,000  Level FlightAware Transoceanic
01:01AM 51.3225 -37.5988 79° East 503 579 34,000  Level FlightAware Transoceanic
01:02AM 51.3493 -37.3789 79° East 503 579 34,000  Level FlightAware Transoceanic
01:03AM 51.3758 -37.1587 79° East 503 579 34,000  Level FlightAware Transoceanic
01:04AM 51.4018 -36.9383 79° East 503 579 34,000  Level FlightAware Transoceanic
01:05AM 51.4274 -36.7176 80° East 503 579 34,000  Level FlightAware Transoceanic
01:06AM 51.4527 -36.4967 80° East 503 579 34,000  Level FlightAware Transoceanic
01:07AM 51.4775 -36.2755 80° East 503 579 34,000  Level FlightAware Transoceanic
01:08AM 51.5018 -36.0541 80° East 503 579 34,000  Level FlightAware Transoceanic
01:09AM 51.5258 -35.8325 80° East 503 579 34,000  Level FlightAware Transoceanic
01:10AM 51.5493 -35.6106 80° East 503 579 34,000  Level FlightAware Transoceanic
01:11AM 51.5725 -35.3885 81° East 503 579 34,000  Level FlightAware Transoceanic
01:12AM 51.5952 -35.1662 81° East 503 579 34,000  Level FlightAware Transoceanic
01:13AM 51.6175 -34.9437 81° East 503 579 34,000  Level FlightAware Transoceanic
01:14AM 51.6393 -34.7210 81° East 503 579 34,000  Level FlightAware Transoceanic
01:15AM 51.6608 -34.4980 81° East 503 579 34,000  Level FlightAware Transoceanic
01:16AM 51.6818 -34.2748 81° East 503 579 34,000  Level FlightAware Transoceanic
01:17AM 51.7024 -34.0514 82° East 503 579 34,000  Level FlightAware Transoceanic
01:18AM 51.7225 -33.8278 82° East 503 579 34,000  Level FlightAware Transoceanic
01:19AM 51.7423 -33.6041 82° East 503 579 34,000  Level FlightAware Transoceanic
01:20AM 51.7616 -33.3801 82° East 503 579 34,000  Level FlightAware Transoceanic
01:21AM 51.7805 -33.1559 82° East 503 579 34,000  Level FlightAware Transoceanic
01:22AM 51.7990 -32.9316 83° East 503 579 34,000  Level FlightAware Transoceanic
01:23AM 51.8170 -32.7071 83° East 503 579 34,000  Level FlightAware Transoceanic
01:24AM 51.8346 -32.4823 83° East 503 579 34,000  Level FlightAware Transoceanic
01:25AM 51.8518 -32.2575 83° East 503 579 34,000  Level FlightAware Transoceanic
01:26AM 51.8686 -32.0324 83° East 503 579 34,000  Level FlightAware Transoceanic
01:27AM 51.8849 -31.8072 83° East 503 579 34,000  Level FlightAware Transoceanic
01:28AM 51.9008 -31.5818 84° East 503 579 34,000  Level FlightAware Transoceanic
01:29AM 51.9163 -31.3563 84° East 503 579 34,000  Level FlightAware Transoceanic
01:30AM 51.9313 -31.1306 84° East 503 579 34,000  Level FlightAware Transoceanic
01:31AM 51.9459 -30.9048 84° East 503 579 34,000  Level FlightAware Transoceanic
01:32AM 51.9601 -30.6788 84° East 503 579 34,000  Level FlightAware Transoceanic
01:33AM 51.9738 -30.4527 84° East 503 579 34,000  Level FlightAware Transoceanic
01:34AM 51.9871 -30.2264 85° East 503 579 34,000  Level FlightAware Transoceanic
01:35AM 51.9998 -30.0035 85° East  Level FlightAware Approximate
01:36AM 52.0118 -29.7804 85° East  Level FlightAware Approximate
01:37AM 52.0305 -29.7887 77° East  Level FlightAware Approximate
01:38AM 52.0615 -29.5704 77° East  Level FlightAware Approximate
01:38AM 52.0000 -30.0000 77° East 472 543 34,000  Level ETMS Enhanced Traffic Management System
01:39AM 52.0922 -29.3517 77° East  Level FlightAware Approximate
01:40AM 52.1225 -29.1327 77° East  Level FlightAware Approximate
01:41AM 52.1523 -28.9135 77° East  Level FlightAware Approximate
01:42AM 52.1817 -28.6939 78° East  Level FlightAware Approximate
01:43AM 52.2108 -28.4741 78° East  Level FlightAware Approximate
01:44AM 52.2562 -28.1231 78° East 472 543 34,000  Level FlightAware Transoceanic
01:45AM 52.2828 -27.9132 78° East 472 543 34,000  Level FlightAware Transoceanic
01:46AM 52.3091 -27.7031 79° East 472 543 34,000  Level FlightAware Transoceanic
01:47AM 52.3349 -27.4928 79° East 472 543 34,000  Level FlightAware Transoceanic
01:48AM 52.3605 -27.2822 79° East 472 543 34,000  Level FlightAware Transoceanic
01:49AM 52.3856 -27.0714 79° East 472 543 34,000  Level FlightAware Transoceanic
01:50AM 52.4103 -26.8603 79° East 472 543 34,000  Level FlightAware Transoceanic
01:51AM 52.4347 -26.6490 79° East 472 543 34,000  Level FlightAware Transoceanic
01:52AM 52.4587 -26.4375 80° East 472 543 34,000  Level FlightAware Transoceanic
01:53AM 52.4823 -26.2257 80° East 472 543 34,000  Level FlightAware Transoceanic
01:54AM 52.5056 -26.0137 80° East 472 543 34,000  Level FlightAware Transoceanic
01:55AM 52.5284 -25.8015 80° East 472 543 34,000  Level FlightAware Transoceanic
01:56AM 52.5509 -25.5890 80° East 472 543 34,000  Level FlightAware Transoceanic
01:57AM 52.5730 -25.3764 80° East 472 543 34,000  Level FlightAware Transoceanic
01:58AM 52.5947 -25.1635 81° East 472 543 34,000  Level FlightAware Transoceanic
01:59AM 52.6161 -24.9505 81° East 472 543 34,000  Level FlightAware Transoceanic
02:00AM 52.6370 -24.7372 81° East 472 543 34,000  Level FlightAware Transoceanic
02:01AM 52.6576 -24.5237 81° East 472 543 34,000  Level FlightAware Transoceanic
02:02AM 52.6778 -24.3100 81° East 472 543 34,000  Level FlightAware Transoceanic
02:03AM 52.6976 -24.0961 81° East 472 543 34,000  Level FlightAware Transoceanic
02:04AM 52.7170 -23.8821 82° East 472 543 34,000  Level FlightAware Transoceanic
02:05AM 52.7360 -23.6678 82° East 472 543 34,000  Level FlightAware Transoceanic
02:06AM 52.7547 -23.4534 82° East 472 543 34,000  Level FlightAware Transoceanic
02:07AM 52.7729 -23.2387 82° East 472 543 34,000  Level FlightAware Transoceanic
02:08AM 52.7908 -23.0239 82° East 472 543 34,000  Level FlightAware Transoceanic
02:09AM 52.8083 -22.8090 82° East 472 543 34,000  Level FlightAware Transoceanic
02:10AM 52.8254 -22.5938 83° East 472 543 34,000  Level FlightAware Transoceanic
02:11AM 52.8421 -22.3785 83° East 472 543 34,000  Level FlightAware Transoceanic
02:12AM 52.8584 -22.1630 83° East 472 543 34,000  Level FlightAware Transoceanic
02:13AM 52.8743 -21.9474 83° East 472 543 34,000  Level FlightAware Transoceanic
02:14AM 52.8899 -21.7316 83° East 472 543 34,000  Level FlightAware Transoceanic
02:15AM 52.9050 -21.5156 83° East 472 543 34,000  Level FlightAware Transoceanic
02:16AM 52.9198 -21.2995 84° East 472 543 34,000  Level FlightAware Transoceanic
02:17AM 52.9341 -21.0833 84° East 472 543 34,000  Level FlightAware Transoceanic
02:18AM 52.9481 -20.8669 84° East 472 543 34,000  Level FlightAware Transoceanic
02:19AM 52.9617 -20.6504 84° East 472 543 34,000  Level FlightAware Transoceanic
02:20AM 52.9748 -20.4337 84° East 472 543 34,000  Level FlightAware Transoceanic
02:21AM 52.9876 -20.2169 84° East 472 543 34,000 -60 Level FlightAware Transoceanic
02:22AM 53.0007 -19.9882 84° East  Level FlightAware Approximate
02:23AM 52.9999 -19.9762 90° East  Level FlightAware Approximate
02:24AM 52.9991 -19.7464 90° East  Level FlightAware Approximate
02:25AM 52.9979 -19.5166 90° East  Level FlightAware Approximate
02:26AM 52.9962 -19.2869 91° East  Level FlightAware Approximate
02:27AM 52.9941 -19.0571 91° East  Level FlightAware Approximate
02:28AM 52.9915 -18.8274 91° East  Level FlightAware Approximate
02:29AM 52.9885 -18.5977 91° East  Level FlightAware Approximate
02:30AM 52.9850 -18.3680 91° East  Level FlightAware Approximate
02:31AM 52.9811 -18.1384 92° East  Level FlightAware Approximate
02:32AM 52.9768 -17.9088 92° East  Level FlightAware Approximate
02:33AM 52.9720 -17.6793 92° East  Level FlightAware Approximate
02:34AM 52.9668 -17.4498 92° East  Level FlightAware Approximate
02:35AM 52.9611 -17.2204 92° East  Level FlightAware Approximate
02:36AM 52.9550 -16.9910 92° East  Level FlightAware Approximate
02:37AM 52.9485 -16.7617 93° East  Level FlightAware Approximate
02:38AM 52.9415 -16.5325 93° East  Level FlightAware Approximate
02:39AM 52.9341 -16.3034 93° East  Level FlightAware Approximate
02:40AM 52.9262 -16.0743 93° East  Level FlightAware Approximate
02:41AM 52.9179 -15.8454 93° East  Level FlightAware Approximate
02:42AM 52.9091 -15.6165 94° East  Level FlightAware Approximate
02:43AM 52.8999 -15.3877 94° East  Level FlightAware Approximate
02:44AM 52.8903 -15.1590 94° East  Level FlightAware Approximate
02:45AM 52.8805 -14.9304 94° East  Level FlightAware Approximate
02:46AM 52.8709 -14.7018 94° East  Level FlightAware Approximate
02:47AM 52.8609 -14.4733 94° East  Level FlightAware Approximate
02:48AM 52.8504 -14.2449 94° East  Level FlightAware Approximate
02:49AM 52.8395 -14.0167 94° East  Level FlightAware Approximate
02:50AM 52.8282 -13.7885 95° East  Level FlightAware Approximate
02:51AM 52.8164 -13.5605 95° East  Level FlightAware Approximate
02:52AM 52.8042 -13.3326 95° East  Level FlightAware Approximate
02:53AM 52.7916 -13.1048 95° East  Level FlightAware Approximate
02:54AM 52.7785 -12.8771 95° East  Level FlightAware Approximate
02:55AM 52.7650 -12.6496 96° East  Level FlightAware Approximate
02:56AM 52.7510 -12.4223 96° East  Level FlightAware Approximate
02:57AM 52.7366 -12.1951 96° East  Level FlightAware Approximate
02:58AM 52.7218 -11.9680 96° East  Level FlightAware Approximate
02:59AM 52.7066 -11.7411 96° East  Level FlightAware Approximate
03:00AM 52.6909 -11.5144 96° East  Level FlightAware Approximate
03:00AM 52.7760 -11.5030 96° East 515 593 33,000  Level FlightAware
03:00AM 52.7660 -11.3710 97° East 515 593 33,000  Level FlightAware
03:01AM 52.7440 -11.1770 101° East 506 582 33,000  Level FlightAware
03:02AM 52.7300 -11.0220 98° East 501 577 33,000  Level FlightAware
03:02AM 52.7150 -10.8740 99° East 497 572 33,000 -120 Level FlightAware
03:03AM 52.7010 -10.7250 99° East 494 568 32,900 -600 Descending FlightAware
03:04AM 52.6820 -10.5390 99° East 489 563 32,100 -1,020 Descending FlightAware
03:05AM 52.6660 -10.3780 99° East 484 557 31,400 -960 Descending FlightAware
03:05AM 52.6560 -10.2800 100° East 483 556 31,000 -360 Descending FlightAware
03:06AM 52.6420 -10.1390 99° East 481 554 31,000  Level FlightAware
03:06AM 52.6270 -9.9960 100° East 476 548 31,000  Level FlightAware
03:07AM 52.6100 -9.8360 100° East 473 544 31,000  Level FlightAware
03:08AM 52.5950 -9.6970 100° East 471 542 31,000  Level FlightAware
03:09AM 52.5780 -9.5380 100° East 470 541 31,000  Level FlightAware
03:09AM 52.5620 -9.3960 100° East 471 542 31,000  Level FlightAware
03:10AM 52.5440 -9.2380 101° East 470 541 31,000  Level FlightAware
03:11AM 52.5290 -9.0980 100° East 470 541 31,000  Level FlightAware
03:11AM 52.5130 -8.9570 101° East 469 540 31,000  Level FlightAware
03:12AM 52.4970 -8.8170 101° East 470 541 31,000  Level FlightAware
03:13AM 52.4800 -8.6780 101° East 471 542 31,000  Level FlightAware
03:13AM 52.4620 -8.5180 100° East 474 545 31,000  Level FlightAware
03:14AM 52.4430 -8.3590 101° East 475 547 31,000  Level FlightAware
03:15AM 52.4260 -8.2180 101° East 476 548 31,000  Level FlightAware
03:16AM 52.4060 -8.0580 102° East 477 549 31,000  Level FlightAware
03:16AM 52.3870 -7.9050 101° East 479 551 31,000  Level FlightAware
03:17AM 52.3680 -7.7460 101° East 479 551 31,000  Level FlightAware
03:18AM 52.3500 -7.6070 102° East 479 551 31,000  Level FlightAware
03:18AM 52.3330 -7.4690 101° East 481 554 31,000  Level FlightAware
03:19AM 52.3110 -7.3020 102° East 481 554 31,000  Level FlightAware
03:20AM 52.2920 -7.1580 102° East 481 554 31,000  Level FlightAware
03:20AM 52.2750 -7.0220 101° East 482 555 31,000  Level FlightAware
03:21AM 52.2530 -6.8580 102° East 483 556 31,000  Level FlightAware
03:22AM 52.2340 -6.7200 103° East 483 556 31,000  Level FlightAware
03:22AM 52.2140 -6.5730 102° East 484 557 31,000  Level FlightAware
03:23AM 52.1930 -6.4150 102° East 485 558 31,000  Level FlightAware
03:24AM 52.1680 -6.2740 106° East 494 568 31,000  Level FlightAware
03:25AM 52.1330 -6.1330 112° Southeast 495 570 31,000  Level FlightAware
03:25AM 52.0950 -5.9840 112° Southeast 496 571 31,000  Level FlightAware
03:26AM 52.0550 -5.8270 112° Southeast 498 573 31,000  Level FlightAware
03:27AM 52.0190 -5.6880 113° Southeast 500 575 31,000  Level FlightAware
03:27AM 51.9630 -5.5510 124° Southeast 498 573 31,000  Level FlightAware
03:28AM 51.9110 -5.4270 124° Southeast 495 570 31,000  Level FlightAware
03:29AM 51.8590 -5.3050 125° Southeast 493 567 31,000  Level FlightAware
03:30AM 51.8010 -5.1680 124° Southeast 494 568 31,000  Level FlightAware
03:30AM 51.7490 -5.0480 125° Southeast 493 567 31,000  Level FlightAware
03:31AM 51.6930 -4.9220 126° Southeast 494 568 31,000  Level FlightAware
03:32AM 51.6440 -4.7970 122° Southeast 487 560 31,000  Level FlightAware
03:32AM 51.6260 -4.6590 102° East 463 533 31,000  Level FlightAware
03:33AM 51.6340 -4.5090 85° East 457 526 31,000  Level FlightAware
03:34AM 51.6400 -4.3820 86° East 457 526 31,000  Level FlightAware
03:34AM 51.6470 -4.2400 85° East 457 526 31,000  Level FlightAware
03:35AM 51.6550 -4.0880 85° East 457 526 31,000  Level FlightAware
03:36AM 51.6630 -3.9530 84° East 456 525 31,000 -960 Level FlightAware
03:37AM 51.6710 -3.8010 85° East 452 520 29,700 -2,520 Descending FlightAware
03:37AM 51.6820 -3.6670 82° East 451 519 27,500 -2,640 Descending FlightAware
03:38AM 51.6950 -3.5400 81° East 435 501 26,200 -1,500 Descending FlightAware
03:39AM 51.6930 -3.3940 91° East 434 499 25,400 -900 Descending FlightAware
03:39AM 51.6610 -3.2760 114° Southeast 427 491 25,000 -300 Descending FlightAware
03:40AM 51.6250 -3.1480 114° Southeast 426 490 25,000 -180 Level FlightAware
03:41AM 51.5930 -3.0340 114° Southeast 422 486 24,800 -1,020 Descending FlightAware
03:41AM 51.5680 -2.9130 108° East 407 468 23,700 -1,500 Descending FlightAware
03:42AM 51.5500 -2.7830 103° East 405 466 22,700 -1,380 Descending FlightAware
03:43AM 51.5330 -2.6630 103° East 400 460 21,800 -1,380 Descending FlightAware
03:44AM 51.5140 -2.5340 103° East 390 449 20,800 -1,320 Descending FlightAware
03:44AM 51.4990 -2.4230 102° East 388 447 20,000 -1,320 Descending FlightAware
03:45AM 51.4830 -2.3150 103° East 385 443 19,100 -1,320 Descending FlightAware
03:46AM 51.4650 -2.1920 103° East 378 435 18,200 -1,320 Descending FlightAware
03:46AM 51.4500 -2.0920 103° East 372 428 17,400 -1,380 Descending FlightAware
03:47AM 51.4310 -1.9600 103° East 364 419 16,300 -1,200 Descending FlightAware
03:48AM 51.4170 -1.8640 103° East 360 414 15,600 -1,080 Descending FlightAware
03:48AM 51.4000 -1.7520 104° East 357 411 14,900 -1,020 Descending FlightAware
03:49AM 51.3830 -1.6420 104° East 350 403 14,200 -660 Descending FlightAware
03:50AM 51.3680 -1.5400 103° East 348 400 14,000 -180 Descending FlightAware
03:51AM 51.3510 -1.4260 103° East 350 403 14,000  Level FlightAware
03:51AM 51.3360 -1.3230 103° East 350 403 14,000  Level FlightAware
03:52AM 51.3220 -1.2310 104° East 350 403 14,000 -660 Level FlightAware
03:53AM 51.3120 -1.1080 97° East 341 392 13,100 -840 Descending FlightAware
03:53AM 51.3120 -1.0380 90° East 318 366 13,000 -120 Descending FlightAware
03:54AM 51.3110 -0.9490 91° East 276 318 13,000 -300 Level FlightAware
03:55AM 51.3100 -0.8630 91° East 259 298 12,600 -780 Descending FlightAware
03:55AM 51.3090 -0.7880 91° East 251 289 11,900 -1,020 Descending FlightAware
03:56AM 51.3080 -0.7140 91° East 251 289 11,300 -660 Descending FlightAware
03:57AM 51.3050 -0.6300 93° East 246 283 11,000 -240 Descending FlightAware
03:57AM 51.3030 -0.5570 92° East 250 288 11,000  Level FlightAware
03:58AM 51.3010 -0.4980 93° East 247 284 11,000  Level FlightAware
03:58AM 51.3080 -0.4660 71° East 237 273 11,000 -720 Level FlightAware
03:58AM 51.3230 -0.4500 34° Northeast 239 275 10,600 -1,440 Descending FlightAware
03:59AM 51.3320 -0.4480 North 242 278 10,400 -1,440 Descending FlightAware
03:59AM 51.3490 -0.4560 344° North 247 284 9,900 -1,920 Descending FlightAware
03:59AM 51.3640 -0.4820 313° West 254 292 9,300 -1,800 Descending FlightAware
04:00AM 51.3640 -0.5790 270° West 252 290 7,800 -1,800 Descending FlightAware
04:01AM 51.3620 -0.6570 268° West 249 287 6,500 -1,380 Descending FlightAware
04:01AM 51.3610 -0.6950 268° West 247 284 6,100 -1,200 Descending FlightAware
04:02AM 51.3660 -0.7720 276° West 238 274 5,300 -1,440 Descending FlightAware
04:02AM 51.3710 -0.8230 279° West 228 262 4,800 -780 Descending FlightAware
04:03AM 51.3760 -0.8610 282° West 209 241 4,600 -480 Descending FlightAware
04:03AM 51.3850 -0.8970 292° West 194 223 4,400 -720 Descending FlightAware
04:03AM 51.3950 -0.9170 309° West 173 199 4,100 -1,020 Descending FlightAware
04:04AM 51.4020 -0.9200 345° North 168 193 3,900 -600 Descending FlightAware
04:04AM 51.4240 -0.9240 354° North 172 198 3,700 -300 Descending FlightAware
04:04AM 51.4330 -0.9250 356° North 175 201 3,700  Level FlightAware
04:05AM 51.4490 -0.9050 38° Northeast 169 194 3,700 -240 Level FlightAware
04:05AM 51.4620 -0.8710 58° Northeast 162 186 3,500 -420 Descending FlightAware
04:06AM 51.4740 -0.8400 58° Northeast 161 185 3,300 -480 Descending FlightAware
04:06AM 51.4760 -0.8290 74° East 164 189 3,200 -420 Descending FlightAware
04:06AM 51.4760 -0.8230 90° East 165 190 3,200 -300 Level FlightAware
04:07AM 51.4760 -0.7740 90° East 166 191 3,000 -240 Descending FlightAware
04:07AM 51.4760 -0.7230 90° East 167 192 2,900 -360 Descending FlightAware
04:08AM 51.4760 -0.7030 90° East 169 194 2,700 -840 Descending FlightAware
04:08AM 51.4770 -0.6700 87° East 159 183 2,300 -900 Descending FlightAware
04:09AM 51.4770 -0.6430 90° East 149 171 1,900 -1,020 Descending FlightAware
04:09AM 51.4770 -0.6050 90° East 149 171 1,400 -900 Descending FlightAware
04:09AM 51.4770 -0.5790 90° East 146 168 1,100 -780 Descending FlightAware
04:10AM 51.4770 -0.5630 90° East 144 166 900 -840 Descending FlightAware
04:10AM 51.4770 -0.5330 90° East 128 147 500 -840 Descending FlightAware
04:10AM 51.4770 -0.5180 90° East 131 151 300 -840 Descending FlightAware
04:11AM 51.4770 -0.4950 90° East 129 148 -720 Descending FlightAware
04:11AM 51.4770 -0.4730 90° East 129 148  Level FlightAware